sensor_id;sensor_type;location;lat;lon;timestamp;temperature;humidity
16785;DHT22;8509;52.178;5.404;2023-11-19T00:00:42;13.30;99.90
16785;DHT22;8509;52.178;5.404;2023-11-19T00:03:08;13.30;99.90
16785;DHT22;8509;52.178;5.404;2023-11-19T00:05:34;13.30;99.90
16785;DHT22;8509;52.178;5.404;2023-11-19T00:07:59;13.30;99.90
16785;DHT22;8509;52.178;5.404;2023-11-19T00:10:25;13.30;99.90
16785;DHT22;8509;52.178;5.404;2023-11-19T00:12:51;13.30;99.90
16785;DHT22;8509;52.178;5.404;2023-11-19T00:15:17;13.30;99.90
16785;DHT22;8509;52.178;5.404;2023-11-19T00:17:45;13.40;99.90
16785;DHT22;8509;52.178;5.404;2023-11-19T00:20:12;13.40;99.90
16785;DHT22;8509;52.178;5.404;2023-11-19T00:22:38;13.40;99.90
16785;DHT22;8509;52.178;5.404;2023-11-19T00:25:05;13.30;99.90
16785;DHT22;8509;52.178;5.404;2023-11-19T00:27:31;13.30;99.90
16785;DHT22;8509;52.178;5.404;2023-11-19T00:29:57;13.30;99.90
16785;DHT22;8509;52.178;5.404;2023-11-19T00:32:23;13.20;99.90
16785;DHT22;8509;52.178;5.404;2023-11-19T00:34:48;13.10;99.90
16785;DHT22;8509;52.178;5.404;2023-11-19T00:37:15;13.10;99.90
16785;DHT22;8509;52.178;5.404;2023-11-19T00:39:41;13.20;99.90
16785;DHT22;8509;52.178;5.404;2023-11-19T00:42:07;13.20;99.90
16785;DHT22;8509;52.178;5.404;2023-11-19T00:44:33;13.20;99.90
16785;DHT22;8509;52.178;5.404;2023-11-19T00:46:58;13.10;99.90
16785;DHT22;8509;52.178;5.404;2023-11-19T00:49:25;13.20;99.90
16785;DHT22;8509;52.178;5.404;2023-11-19T00:51:54;13.20;99.90
16785;DHT22;8509;52.178;5.404;2023-11-19T00:54:22;13.20;99.90
16785;DHT22;8509;52.178;5.404;2023-11-19T00:56:51;13.20;99.90
16785;DHT22;8509;52.178;5.404;2023-11-19T00:59:18;13.20;99.90
16785;DHT22;8509;52.178;5.404;2023-11-19T01:01:43;13.20;99.90
16785;DHT22;8509;52.178;5.404;2023-11-19T01:04:09;13.20;99.90
16785;DHT22;8509;52.178;5.404;2023-11-19T01:06:35;13.10;99.90
16785;DHT22;8509;52.178;5.404;2023-11-19T01:09:00;13.10;99.90
16785;DHT22;8509;52.178;5.404;2023-11-19T01:11:26;13.20;99.90
16785;DHT22;8509;52.178;5.404;2023-11-19T01:13:52;13.30;99.90
16785;DHT22;8509;52.178;5.404;2023-11-19T01:16:18;13.20;99.90
16785;DHT22;8509;52.178;5.404;2023-11-19T01:18:47;13.20;99.90
16785;DHT22;8509;52.178;5.404;2023-11-19T01:21:14;13.10;99.90
16785;DHT22;8509;52.178;5.404;2023-11-19T01:23:42;13.20;99.90
16785;DHT22;8509;52.178;5.404;2023-11-19T01:26:14;13.30;99.90
16785;DHT22;8509;52.178;5.404;2023-11-19T01:28:40;13.20;99.90
16785;DHT22;8509;52.178;5.404;2023-11-19T01:31:14;13.20;99.90
16785;DHT22;8509;52.178;5.404;2023-11-19T01:33:40;13.10;99.90
16785;DHT22;8509;52.178;5.404;2023-11-19T01:36:23;13.00;99.90
16785;DHT22;8509;52.178;5.404;2023-11-19T01:38:49;13.10;99.90
16785;DHT22;8509;52.178;5.404;2023-11-19T01:41:15;13.10;99.90
16785;DHT22;8509;52.178;5.404;2023-11-19T01:43:41;13.10;99.90
16785;DHT22;8509;52.178;5.404;2023-11-19T01:46:07;13.10;99.90
16785;DHT22;8509;52.178;5.404;2023-11-19T01:48:35;13.10;99.90
16785;DHT22;8509;52.178;5.404;2023-11-19T01:51:03;13.10;99.90
16785;DHT22;8509;52.178;5.404;2023-11-19T01:53:30;13.10;99.90
16785;DHT22;8509;52.178;5.404;2023-11-19T01:55:56;13.10;99.90
16785;DHT22;8509;52.178;5.404;2023-11-19T01:58:22;13.10;99.90
16785;DHT22;8509;52.178;5.404;2023-11-19T02:00:48;13.10;99.90
16785;DHT22;8509;52.178;5.404;2023-11-19T02:03:14;13.00;99.90
16785;DHT22;8509;52.178;5.404;2023-11-19T02:05:41;12.90;99.90
16785;DHT22;8509;52.178;5.404;2023-11-19T02:08:07;12.90;99.90
16785;DHT22;8509;52.178;5.404;2023-11-19T02:10:33;12.80;99.90
16785;DHT22;8509;52.178;5.404;2023-11-19T02:12:59;12.80;99.90
16785;DHT22;8509;52.178;5.404;2023-11-19T02:15:26;12.80;99.90
16785;DHT22;8509;52.178;5.404;2023-11-19T02:17:51;12.70;99.90
16785;DHT22;8509;52.178;5.404;2023-11-19T02:20:17;12.50;99.90
16785;DHT22;8509;52.178;5.404;2023-11-19T02:22:48;12.60;99.90
16785;DHT22;8509;52.178;5.404;2023-11-19T02:25:30;12.60;99.90
16785;DHT22;8509;52.178;5.404;2023-11-19T02:28:01;12.50;99.90
16785;DHT22;8509;52.178;5.404;2023-11-19T02:30:27;12.40;99.90
16785;DHT22;8509;52.178;5.404;2023-11-19T02:33:00;12.40;99.90
16785;DHT22;8509;52.178;5.404;2023-11-19T02:35:31;12.40;99.90
16785;DHT22;8509;52.178;5.404;2023-11-19T02:37:58;12.30;99.90
16785;DHT22;8509;52.178;5.404;2023-11-19T02:40:25;12.30;99.90
16785;DHT22;8509;52.178;5.404;2023-11-19T02:42:52;12.20;99.90
16785;DHT22;8509;52.178;5.404;2023-11-19T02:45:18;12.20;99.90
16785;DHT22;8509;52.178;5.404;2023-11-19T02:47:44;12.20;99.90
16785;DHT22;8509;52.178;5.404;2023-11-19T02:50:12;12.20;99.90
16785;DHT22;8509;52.178;5.404;2023-11-19T02:52:42;12.20;99.90
16785;DHT22;8509;52.178;5.404;2023-11-19T02:55:10;12.20;99.90
16785;DHT22;8509;52.178;5.404;2023-11-19T02:57:38;12.20;99.90
16785;DHT22;8509;52.178;5.404;2023-11-19T03:00:05;12.20;99.90
16785;DHT22;8509;52.178;5.404;2023-11-19T03:02:39;12.20;99.90
16785;DHT22;8509;52.178;5.404;2023-11-19T03:05:10;12.20;99.90
16785;DHT22;8509;52.178;5.404;2023-11-19T03:07:37;12.10;99.90
16785;DHT22;8509;52.178;5.404;2023-11-19T03:10:03;12.20;99.90
16785;DHT22;8509;52.178;5.404;2023-11-19T03:12:31;12.20;99.90
16785;DHT22;8509;52.178;5.404;2023-11-19T03:14:56;12.10;99.90
16785;DHT22;8509;52.178;5.404;2023-11-19T03:17:22;12.00;99.90
16785;DHT22;8509;52.178;5.404;2023-11-19T03:19:49;12.00;99.90
16785;DHT22;8509;52.178;5.404;2023-11-19T03:22:15;11.90;99.90
16785;DHT22;8509;52.178;5.404;2023-11-19T03:24:40;11.90;99.90
16785;DHT22;8509;52.178;5.404;2023-11-19T03:27:06;11.80;99.90
16785;DHT22;8509;52.178;5.404;2023-11-19T03:29:32;11.90;99.90
16785;DHT22;8509;52.178;5.404;2023-11-19T03:31:58;11.80;99.90
16785;DHT22;8509;52.178;5.404;2023-11-19T03:34:23;11.80;99.90
16785;DHT22;8509;52.178;5.404;2023-11-19T03:36:49;11.70;99.90
16785;DHT22;8509;52.178;5.404;2023-11-19T03:39:14;11.60;99.90
16785;DHT22;8509;52.178;5.404;2023-11-19T03:41:40;11.70;99.90
16785;DHT22;8509;52.178;5.404;2023-11-19T03:44:06;11.60;99.90
16785;DHT22;8509;52.178;5.404;2023-11-19T03:46:31;11.60;99.90
16785;DHT22;8509;52.178;5.404;2023-11-19T03:48:57;11.60;99.90
16785;DHT22;8509;52.178;5.404;2023-11-19T03:51:23;11.60;99.90
16785;DHT22;8509;52.178;5.404;2023-11-19T03:53:48;11.50;99.90
16785;DHT22;8509;52.178;5.404;2023-11-19T03:56:14;11.50;99.90
16785;DHT22;8509;52.178;5.404;2023-11-19T03:58:40;11.30;99.90
16785;DHT22;8509;52.178;5.404;2023-11-19T04:01:10;11.50;99.90
16785;DHT22;8509;52.178;5.404;2023-11-19T04:03:36;11.40;99.90
16785;DHT22;8509;52.178;5.404;2023-11-19T04:06:02;11.40;99.90
16785;DHT22;8509;52.178;5.404;2023-11-19T04:08:28;11.40;99.90
16785;DHT22;8509;52.178;5.404;2023-11-19T04:10:53;11.30;99.90
16785;DHT22;8509;52.178;5.404;2023-11-19T04:13:19;11.40;99.90
16785;DHT22;8509;52.178;5.404;2023-11-19T04:15:45;11.50;99.90
16785;DHT22;8509;52.178;5.404;2023-11-19T04:18:11;11.40;99.90
16785;DHT22;8509;52.178;5.404;2023-11-19T04:20:36;11.50;99.90
16785;DHT22;8509;52.178;5.404;2023-11-19T04:23:03;11.30;99.90
16785;DHT22;8509;52.178;5.404;2023-11-19T04:25:28;11.30;99.90
16785;DHT22;8509;52.178;5.404;2023-11-19T04:27:54;11.30;99.90
16785;DHT22;8509;52.178;5.404;2023-11-19T04:30:19;11.20;99.90
16785;DHT22;8509;52.178;5.404;2023-11-19T04:32:45;11.30;99.90
16785;DHT22;8509;52.178;5.404;2023-11-19T04:35:11;11.20;99.90
16785;DHT22;8509;52.178;5.404;2023-11-19T04:37:37;11.30;99.90
16785;DHT22;8509;52.178;5.404;2023-11-19T04:40:03;11.30;99.90
16785;DHT22;8509;52.178;5.404;2023-11-19T04:42:32;11.20;99.90
16785;DHT22;8509;52.178;5.404;2023-11-19T04:44:57;11.20;99.90
16785;DHT22;8509;52.178;5.404;2023-11-19T04:47:23;11.20;99.90
16785;DHT22;8509;52.178;5.404;2023-11-19T04:49:49;11.20;99.90
16785;DHT22;8509;52.178;5.404;2023-11-19T04:52:14;11.10;99.90
16785;DHT22;8509;52.178;5.404;2023-11-19T04:54:43;11.10;99.90
16785;DHT22;8509;52.178;5.404;2023-11-19T04:57:12;11.10;99.90
16785;DHT22;8509;52.178;5.404;2023-11-19T04:59:38;11.10;99.90
16785;DHT22;8509;52.178;5.404;2023-11-19T05:02:04;11.20;99.90
16785;DHT22;8509;52.178;5.404;2023-11-19T05:04:32;11.20;99.90
16785;DHT22;8509;52.178;5.404;2023-11-19T05:06:58;11.10;99.90
16785;DHT22;8509;52.178;5.404;2023-11-19T05:09:24;11.10;99.90
16785;DHT22;8509;52.178;5.404;2023-11-19T05:11:49;11.00;99.90
16785;DHT22;8509;52.178;5.404;2023-11-19T05:14:15;11.20;99.90
16785;DHT22;8509;52.178;5.404;2023-11-19T05:16:41;11.20;99.90
16785;DHT22;8509;52.178;5.404;2023-11-19T05:19:08;11.30;99.90
16785;DHT22;8509;52.178;5.404;2023-11-19T05:21:34;11.30;99.90
16785;DHT22;8509;52.178;5.404;2023-11-19T05:24:03;11.30;99.90
16785;DHT22;8509;52.178;5.404;2023-11-19T05:26:30;11.30;99.90
16785;DHT22;8509;52.178;5.404;2023-11-19T05:28:55;11.40;99.90
16785;DHT22;8509;52.178;5.404;2023-11-19T05:31:27;11.30;99.90
16785;DHT22;8509;52.178;5.404;2023-11-19T05:33:52;11.20;99.90
16785;DHT22;8509;52.178;5.404;2023-11-19T05:36:18;11.10;99.90
16785;DHT22;8509;52.178;5.404;2023-11-19T05:38:44;11.20;99.90
16785;DHT22;8509;52.178;5.404;2023-11-19T05:41:10;11.10;99.90
16785;DHT22;8509;52.178;5.404;2023-11-19T05:43:35;11.00;99.90
16785;DHT22;8509;52.178;5.404;2023-11-19T05:46:01;11.00;99.90
16785;DHT22;8509;52.178;5.404;2023-11-19T05:48:27;11.00;99.90
16785;DHT22;8509;52.178;5.404;2023-11-19T05:50:53;10.90;99.90
16785;DHT22;8509;52.178;5.404;2023-11-19T05:53:19;10.90;99.90
16785;DHT22;8509;52.178;5.404;2023-11-19T05:55:44;11.00;99.90
16785;DHT22;8509;52.178;5.404;2023-11-19T05:58:15;10.80;99.90
16785;DHT22;8509;52.178;5.404;2023-11-19T06:00:41;10.80;99.90
16785;DHT22;8509;52.178;5.404;2023-11-19T06:03:07;10.80;99.90
16785;DHT22;8509;52.178;5.404;2023-11-19T06:05:33;10.80;99.90
16785;DHT22;8509;52.178;5.404;2023-11-19T06:07:58;10.90;99.90
16785;DHT22;8509;52.178;5.404;2023-11-19T06:10:24;10.80;99.90
16785;DHT22;8509;52.178;5.404;2023-11-19T06:12:59;10.90;99.90
16785;DHT22;8509;52.178;5.404;2023-11-19T06:15:28;10.90;99.90
16785;DHT22;8509;52.178;5.404;2023-11-19T06:17:54;10.90;99.90
16785;DHT22;8509;52.178;5.404;2023-11-19T06:20:20;10.90;99.90
16785;DHT22;8509;52.178;5.404;2023-11-19T06:22:46;10.90;99.90
16785;DHT22;8509;52.178;5.404;2023-11-19T06:25:12;10.90;99.90
16785;DHT22;8509;52.178;5.404;2023-11-19T06:27:40;10.90;99.90
16785;DHT22;8509;52.178;5.404;2023-11-19T06:30:07;10.90;99.90
16785;DHT22;8509;52.178;5.404;2023-11-19T06:32:33;10.90;99.90
16785;DHT22;8509;52.178;5.404;2023-11-19T06:34:58;10.90;99.90
16785;DHT22;8509;52.178;5.404;2023-11-19T06:37:24;10.80;99.90
16785;DHT22;8509;52.178;5.404;2023-11-19T06:39:50;10.80;99.90
16785;DHT22;8509;52.178;5.404;2023-11-19T06:42:15;10.70;99.90
16785;DHT22;8509;52.178;5.404;2023-11-19T06:44:41;10.70;99.90
16785;DHT22;8509;52.178;5.404;2023-11-19T06:47:06;10.60;99.90
16785;DHT22;8509;52.178;5.404;2023-11-19T06:49:32;10.70;99.90
16785;DHT22;8509;52.178;5.404;2023-11-19T06:51:58;10.70;99.90
16785;DHT22;8509;52.178;5.404;2023-11-19T06:54:24;10.80;99.90
16785;DHT22;8509;52.178;5.404;2023-11-19T06:56:50;10.80;99.90
16785;DHT22;8509;52.178;5.404;2023-11-19T06:59:15;10.90;99.90
16785;DHT22;8509;52.178;5.404;2023-11-19T07:01:41;11.00;99.90
16785;DHT22;8509;52.178;5.404;2023-11-19T07:04:11;11.00;99.90
16785;DHT22;8509;52.178;5.404;2023-11-19T07:06:38;11.10;99.90
16785;DHT22;8509;52.178;5.404;2023-11-19T07:09:04;11.00;99.90
16785;DHT22;8509;52.178;5.404;2023-11-19T07:11:39;11.00;99.90
16785;DHT22;8509;52.178;5.404;2023-11-19T07:14:05;11.00;99.90
16785;DHT22;8509;52.178;5.404;2023-11-19T07:16:32;11.00;99.90
16785;DHT22;8509;52.178;5.404;2023-11-19T07:19:00;11.00;99.90
16785;DHT22;8509;52.178;5.404;2023-11-19T07:21:29;11.00;99.90
16785;DHT22;8509;52.178;5.404;2023-11-19T07:23:55;11.10;99.90
16785;DHT22;8509;52.178;5.404;2023-11-19T07:26:24;11.10;99.90
16785;DHT22;8509;52.178;5.404;2023-11-19T07:28:50;11.20;99.90
16785;DHT22;8509;52.178;5.404;2023-11-19T07:31:16;11.20;99.90
16785;DHT22;8509;52.178;5.404;2023-11-19T07:33:45;11.20;99.90
16785;DHT22;8509;52.178;5.404;2023-11-19T07:36:11;11.20;99.90
16785;DHT22;8509;52.178;5.404;2023-11-19T07:38:37;11.30;99.90
16785;DHT22;8509;52.178;5.404;2023-11-19T07:41:06;11.40;99.90
16785;DHT22;8509;52.178;5.404;2023-11-19T07:43:32;11.30;99.90
16785;DHT22;8509;52.178;5.404;2023-11-19T07:45:58;11.50;99.90
16785;DHT22;8509;52.178;5.404;2023-11-19T07:48:27;11.40;99.90
16785;DHT22;8509;52.178;5.404;2023-11-19T07:50:53;11.50;99.90
16785;DHT22;8509;52.178;5.404;2023-11-19T07:53:19;11.50;99.90
16785;DHT22;8509;52.178;5.404;2023-11-19T07:55:48;11.50;99.90
16785;DHT22;8509;52.178;5.404;2023-11-19T07:58:13;11.60;99.90
16785;DHT22;8509;52.178;5.404;2023-11-19T08:00:39;11.70;99.90
16785;DHT22;8509;52.178;5.404;2023-11-19T08:03:06;11.70;99.90
16785;DHT22;8509;52.178;5.404;2023-11-19T08:05:31;11.70;99.90
16785;DHT22;8509;52.178;5.404;2023-11-19T08:07:57;11.70;99.90
16785;DHT22;8509;52.178;5.404;2023-11-19T08:10:26;11.80;99.90
16785;DHT22;8509;52.178;5.404;2023-11-19T08:12:52;11.70;99.90
16785;DHT22;8509;52.178;5.404;2023-11-19T08:15:17;11.80;99.90
16785;DHT22;8509;52.178;5.404;2023-11-19T08:17:43;11.80;99.90
16785;DHT22;8509;52.178;5.404;2023-11-19T08:20:09;11.80;99.90
16785;DHT22;8509;52.178;5.404;2023-11-19T08:22:38;11.80;99.90
16785;DHT22;8509;52.178;5.404;2023-11-19T08:25:05;11.80;99.90
16785;DHT22;8509;52.178;5.404;2023-11-19T08:27:31;11.80;99.90
16785;DHT22;8509;52.178;5.404;2023-11-19T08:29:57;11.90;99.90
16785;DHT22;8509;52.178;5.404;2023-11-19T08:32:26;12.00;99.90
16785;DHT22;8509;52.178;5.404;2023-11-19T08:34:52;12.00;99.90
16785;DHT22;8509;52.178;5.404;2023-11-19T08:37:18;12.00;99.90
16785;DHT22;8509;52.178;5.404;2023-11-19T08:39:50;12.10;99.90
16785;DHT22;8509;52.178;5.404;2023-11-19T08:42:19;12.10;99.90
16785;DHT22;8509;52.178;5.404;2023-11-19T08:44:49;12.20;99.90
16785;DHT22;8509;52.178;5.404;2023-11-19T08:47:16;12.30;99.90
16785;DHT22;8509;52.178;5.404;2023-11-19T08:49:43;12.30;99.90
16785;DHT22;8509;52.178;5.404;2023-11-19T08:52:09;12.40;99.90
16785;DHT22;8509;52.178;5.404;2023-11-19T08:54:36;12.50;99.90
16785;DHT22;8509;52.178;5.404;2023-11-19T08:57:02;12.60;99.90
16785;DHT22;8509;52.178;5.404;2023-11-19T08:59:29;12.50;99.90
16785;DHT22;8509;52.178;5.404;2023-11-19T09:01:55;12.50;99.90
16785;DHT22;8509;52.178;5.404;2023-11-19T09:04:21;12.50;99.90
16785;DHT22;8509;52.178;5.404;2023-11-19T09:06:48;12.40;99.90
16785;DHT22;8509;52.178;5.404;2023-11-19T09:09:14;12.60;99.90
16785;DHT22;8509;52.178;5.404;2023-11-19T09:11:40;12.60;99.90
16785;DHT22;8509;52.178;5.404;2023-11-19T09:14:06;12.60;99.90
16785;DHT22;8509;52.178;5.404;2023-11-19T09:16:31;12.70;99.90
16785;DHT22;8509;52.178;5.404;2023-11-19T09:18:58;12.60;99.90
16785;DHT22;8509;52.178;5.404;2023-11-19T09:21:25;12.70;99.90
16785;DHT22;8509;52.178;5.404;2023-11-19T09:23:51;12.70;99.90
16785;DHT22;8509;52.178;5.404;2023-11-19T09:26:16;12.80;99.90
16785;DHT22;8509;52.178;5.404;2023-11-19T09:28:42;12.80;99.90
16785;DHT22;8509;52.178;5.404;2023-11-19T09:31:14;12.80;99.90
16785;DHT22;8509;52.178;5.404;2023-11-19T09:33:40;12.80;99.90
16785;DHT22;8509;52.178;5.404;2023-11-19T09:36:06;12.80;99.90
16785;DHT22;8509;52.178;5.404;2023-11-19T09:38:32;12.70;99.90
16785;DHT22;8509;52.178;5.404;2023-11-19T09:40:58;12.70;99.90
16785;DHT22;8509;52.178;5.404;2023-11-19T09:43:27;12.70;99.90
16785;DHT22;8509;52.178;5.404;2023-11-19T09:45:55;12.90;99.90
16785;DHT22;8509;52.178;5.404;2023-11-19T09:48:21;12.90;99.90
16785;DHT22;8509;52.178;5.404;2023-11-19T09:50:50;13.10;99.90
16785;DHT22;8509;52.178;5.404;2023-11-19T09:53:17;13.00;99.90
16785;DHT22;8509;52.178;5.404;2023-11-19T09:55:43;12.90;99.90
16785;DHT22;8509;52.178;5.404;2023-11-19T09:58:12;12.90;99.90
16785;DHT22;8509;52.178;5.404;2023-11-19T10:00:40;12.90;99.90
16785;DHT22;8509;52.178;5.404;2023-11-19T10:03:07;12.90;99.90
16785;DHT22;8509;52.178;5.404;2023-11-19T10:05:34;13.00;99.90
16785;DHT22;8509;52.178;5.404;2023-11-19T10:08:01;13.10;99.90
16785;DHT22;8509;52.178;5.404;2023-11-19T10:10:28;13.10;99.90
16785;DHT22;8509;52.178;5.404;2023-11-19T10:12:55;13.30;99.90
16785;DHT22;8509;52.178;5.404;2023-11-19T10:15:22;13.40;99.90
16785;DHT22;8509;52.178;5.404;2023-11-19T10:17:49;13.40;99.90
16785;DHT22;8509;52.178;5.404;2023-11-19T10:20:15;13.40;99.90
16785;DHT22;8509;52.178;5.404;2023-11-19T10:22:40;13.40;99.90
16785;DHT22;8509;52.178;5.404;2023-11-19T10:25:26;13.50;99.90
16785;DHT22;8509;52.178;5.404;2023-11-19T10:27:53;13.50;99.90
16785;DHT22;8509;52.178;5.404;2023-11-19T10:30:26;13.60;99.90
16785;DHT22;8509;52.178;5.404;2023-11-19T10:33:13;13.60;99.90
16785;DHT22;8509;52.178;5.404;2023-11-19T10:35:58;13.80;99.90
16785;DHT22;8509;52.178;5.404;2023-11-19T10:38:24;13.80;99.90
16785;DHT22;8509;52.178;5.404;2023-11-19T10:40:51;13.70;99.90
16785;DHT22;8509;52.178;5.404;2023-11-19T10:43:18;13.80;99.90
16785;DHT22;8509;52.178;5.404;2023-11-19T10:45:44;13.90;99.90
16785;DHT22;8509;52.178;5.404;2023-11-19T10:48:09;14.00;99.90
16785;DHT22;8509;52.178;5.404;2023-11-19T10:50:41;14.00;99.90
16785;DHT22;8509;52.178;5.404;2023-11-19T10:53:08;14.10;99.90
16785;DHT22;8509;52.178;5.404;2023-11-19T10:55:38;14.20;99.90
16785;DHT22;8509;52.178;5.404;2023-11-19T10:58:08;14.40;99.90
16785;DHT22;8509;52.178;5.404;2023-11-19T11:03:18;14.70;99.90
16785;DHT22;8509;52.178;5.404;2023-11-19T11:05:47;14.80;99.90
16785;DHT22;8509;52.178;5.404;2023-11-19T11:08:13;14.80;99.90
16785;DHT22;8509;52.178;5.404;2023-11-19T11:10:42;14.70;99.90
16785;DHT22;8509;52.178;5.404;2023-11-19T11:13:08;14.60;99.90
16785;DHT22;8509;52.178;5.404;2023-11-19T11:15:36;14.70;99.90
16785;DHT22;8509;52.178;5.404;2023-11-19T11:18:02;14.70;99.90
16785;DHT22;8509;52.178;5.404;2023-11-19T11:20:35;14.50;99.90
16785;DHT22;8509;52.178;5.404;2023-11-19T11:28:48;14.50;99.90
16785;DHT22;8509;52.178;5.404;2023-11-19T11:31:29;14.50;99.90
16785;DHT22;8509;52.178;5.404;2023-11-19T11:37:43;14.70;99.90
16785;DHT22;8509;52.178;5.404;2023-11-19T11:39:41;14.60;99.90
16785;DHT22;8509;52.178;5.404;2023-11-19T11:45:10;14.50;99.90
16785;DHT22;8509;52.178;5.404;2023-11-19T11:50:26;14.40;99.90
16785;DHT22;8509;52.178;5.404;2023-11-19T11:55:27;14.30;99.90
16785;DHT22;8509;52.178;5.404;2023-11-19T11:57:54;14.20;99.90
16785;DHT22;8509;52.178;5.404;2023-11-19T12:00:27;14.20;99.90
16785;DHT22;8509;52.178;5.404;2023-11-19T12:03:02;14.20;99.90
16785;DHT22;8509;52.178;5.404;2023-11-19T12:05:29;14.10;99.90
16785;DHT22;8509;52.178;5.404;2023-11-19T12:08:01;14.30;99.90
16785;DHT22;8509;52.178;5.404;2023-11-19T12:10:31;14.30;99.90
16785;DHT22;8509;52.178;5.404;2023-11-19T12:13:01;14.40;99.90
16785;DHT22;8509;52.178;5.404;2023-11-19T12:15:27;14.40;99.90
16785;DHT22;8509;52.178;5.404;2023-11-19T12:17:56;14.30;99.90
16785;DHT22;8509;52.178;5.404;2023-11-19T12:20:26;14.20;99.90
16785;DHT22;8509;52.178;5.404;2023-11-19T12:22:53;14.20;99.90
16785;DHT22;8509;52.178;5.404;2023-11-19T12:25:19;14.40;99.90
16785;DHT22;8509;52.178;5.404;2023-11-19T12:27:47;14.20;99.90
16785;DHT22;8509;52.178;5.404;2023-11-19T12:30:24;14.60;99.90
16785;DHT22;8509;52.178;5.404;2023-11-19T12:32:50;14.70;99.90
16785;DHT22;8509;52.178;5.404;2023-11-19T12:35:16;14.80;99.90
16785;DHT22;8509;52.178;5.404;2023-11-19T12:37:46;14.60;99.90
16785;DHT22;8509;52.178;5.404;2023-11-19T12:40:18;14.50;99.90
16785;DHT22;8509;52.178;5.404;2023-11-19T12:42:45;14.30;99.90
16785;DHT22;8509;52.178;5.404;2023-11-19T12:45:11;14.40;99.90
16785;DHT22;8509;52.178;5.404;2023-11-19T12:47:38;14.30;99.90
16785;DHT22;8509;52.178;5.404;2023-11-19T12:50:05;14.20;99.90
16785;DHT22;8509;52.178;5.404;2023-11-19T12:52:30;14.10;99.90
16785;DHT22;8509;52.178;5.404;2023-11-19T12:54:56;14.00;99.90
16785;DHT22;8509;52.178;5.404;2023-11-19T12:57:37;14.00;99.90
16785;DHT22;8509;52.178;5.404;2023-11-19T13:00:03;13.90;99.90
16785;DHT22;8509;52.178;5.404;2023-11-19T13:02:50;13.90;99.90
16785;DHT22;8509;52.178;5.404;2023-11-19T13:05:32;13.90;99.90
16785;DHT22;8509;52.178;5.404;2023-11-19T13:10:26;13.90;99.90
16785;DHT22;8509;52.178;5.404;2023-11-19T13:13:02;13.90;99.90
16785;DHT22;8509;52.178;5.404;2023-11-19T13:15:27;13.80;99.90
16785;DHT22;8509;52.178;5.404;2023-11-19T13:17:54;13.80;99.90
16785;DHT22;8509;52.178;5.404;2023-11-19T13:20:19;13.70;99.90
16785;DHT22;8509;52.178;5.404;2023-11-19T13:22:56;13.60;99.90
16785;DHT22;8509;52.178;5.404;2023-11-19T13:25:22;13.60;99.90
16785;DHT22;8509;52.178;5.404;2023-11-19T13:27:48;13.70;99.90
16785;DHT22;8509;52.178;5.404;2023-11-19T13:30:14;13.70;99.90
16785;DHT22;8509;52.178;5.404;2023-11-19T13:32:40;13.70;99.90
16785;DHT22;8509;52.178;5.404;2023-11-19T13:35:10;13.60;99.90
16785;DHT22;8509;52.178;5.404;2023-11-19T13:37:35;13.60;99.90
16785;DHT22;8509;52.178;5.404;2023-11-19T13:40:01;13.50;99.90
16785;DHT22;8509;52.178;5.404;2023-11-19T13:42:28;13.50;99.90
16785;DHT22;8509;52.178;5.404;2023-11-19T13:44:54;13.50;99.90
16785;DHT22;8509;52.178;5.404;2023-11-19T13:47:20;13.50;99.90
16785;DHT22;8509;52.178;5.404;2023-11-19T13:49:46;13.50;99.90
16785;DHT22;8509;52.178;5.404;2023-11-19T13:52:11;13.50;99.90
16785;DHT22;8509;52.178;5.404;2023-11-19T13:54:37;13.50;99.90
16785;DHT22;8509;52.178;5.404;2023-11-19T13:57:03;13.40;99.90
16785;DHT22;8509;52.178;5.404;2023-11-19T13:59:32;13.30;99.90
16785;DHT22;8509;52.178;5.404;2023-11-19T14:01:58;13.40;99.90
16785;DHT22;8509;52.178;5.404;2023-11-19T14:04:24;13.50;99.90
16785;DHT22;8509;52.178;5.404;2023-11-19T14:06:51;13.60;99.90
16785;DHT22;8509;52.178;5.404;2023-11-19T14:09:17;13.60;99.90
16785;DHT22;8509;52.178;5.404;2023-11-19T14:11:43;13.60;99.90
16785;DHT22;8509;52.178;5.404;2023-11-19T14:14:09;13.60;99.90
16785;DHT22;8509;52.178;5.404;2023-11-19T14:16:34;13.50;99.90
16785;DHT22;8509;52.178;5.404;2023-11-19T14:19:00;13.60;99.90
16785;DHT22;8509;52.178;5.404;2023-11-19T14:21:26;13.60;99.90
16785;DHT22;8509;52.178;5.404;2023-11-19T14:23:52;13.70;99.90
16785;DHT22;8509;52.178;5.404;2023-11-19T14:26:18;13.80;99.90
16785;DHT22;8509;52.178;5.404;2023-11-19T14:28:44;13.70;99.90
16785;DHT22;8509;52.178;5.404;2023-11-19T14:31:09;13.70;99.90
16785;DHT22;8509;52.178;5.404;2023-11-19T14:33:35;13.60;99.90
16785;DHT22;8509;52.178;5.404;2023-11-19T14:36:02;13.70;99.90
16785;DHT22;8509;52.178;5.404;2023-11-19T14:38:28;13.50;99.90
16785;DHT22;8509;52.178;5.404;2023-11-19T14:40:53;13.60;99.90
16785;DHT22;8509;52.178;5.404;2023-11-19T14:43:20;13.50;99.90
16785;DHT22;8509;52.178;5.404;2023-11-19T14:45:46;13.50;99.90
16785;DHT22;8509;52.178;5.404;2023-11-19T14:48:11;13.50;99.90
16785;DHT22;8509;52.178;5.404;2023-11-19T14:50:37;13.30;99.90
16785;DHT22;8509;52.178;5.404;2023-11-19T14:53:02;13.30;99.90
16785;DHT22;8509;52.178;5.404;2023-11-19T14:55:28;13.20;99.90
16785;DHT22;8509;52.178;5.404;2023-11-19T14:57:54;13.20;99.90
16785;DHT22;8509;52.178;5.404;2023-11-19T15:00:21;13.20;99.90
16785;DHT22;8509;52.178;5.404;2023-11-19T15:02:47;13.20;99.90
16785;DHT22;8509;52.178;5.404;2023-11-19T15:05:12;13.10;99.90
16785;DHT22;8509;52.178;5.404;2023-11-19T15:07:39;13.10;99.90
16785;DHT22;8509;52.178;5.404;2023-11-19T15:10:06;13.20;99.90
16785;DHT22;8509;52.178;5.404;2023-11-19T15:12:38;13.20;99.90
16785;DHT22;8509;52.178;5.404;2023-11-19T15:15:07;13.20;99.90
16785;DHT22;8509;52.178;5.404;2023-11-19T15:17:34;13.10;99.90
16785;DHT22;8509;52.178;5.404;2023-11-19T15:20:09;13.10;99.90
16785;DHT22;8509;52.178;5.404;2023-11-19T15:22:46;13.10;99.90
16785;DHT22;8509;52.178;5.404;2023-11-19T15:25:15;13.10;99.90
16785;DHT22;8509;52.178;5.404;2023-11-19T15:27:41;13.10;99.90
16785;DHT22;8509;52.178;5.404;2023-11-19T15:30:07;13.10;99.90
16785;DHT22;8509;52.178;5.404;2023-11-19T15:32:35;13.10;99.90
16785;DHT22;8509;52.178;5.404;2023-11-19T15:35:01;13.20;99.90
16785;DHT22;8509;52.178;5.404;2023-11-19T15:37:26;13.00;99.90
16785;DHT22;8509;52.178;5.404;2023-11-19T15:39:52;13.00;99.90
16785;DHT22;8509;52.178;5.404;2023-11-19T15:42:18;13.10;99.90
16785;DHT22;8509;52.178;5.404;2023-11-19T15:44:43;13.10;99.90
16785;DHT22;8509;52.178;5.404;2023-11-19T15:47:10;13.00;99.90
16785;DHT22;8509;52.178;5.404;2023-11-19T15:49:36;13.00;99.90
16785;DHT22;8509;52.178;5.404;2023-11-19T15:52:03;12.90;99.90
16785;DHT22;8509;52.178;5.404;2023-11-19T15:54:30;13.00;99.90
16785;DHT22;8509;52.178;5.404;2023-11-19T15:56:56;13.00;99.90
16785;DHT22;8509;52.178;5.404;2023-11-19T15:59:21;13.00;99.90
16785;DHT22;8509;52.178;5.404;2023-11-19T16:01:47;13.00;99.90
16785;DHT22;8509;52.178;5.404;2023-11-19T16:04:13;13.00;99.90
16785;DHT22;8509;52.178;5.404;2023-11-19T16:06:39;13.00;99.90